sensor_id;sensor_type;location;lat;lon;timestamp;temperature;humidity
13496;DHT22;6820;49.374;8.452;2023-05-10T00:00:43;16.37;99.99
13496;DHT22;6820;49.374;8.452;2023-05-10T00:04:45;16.36;99.99
13496;DHT22;6820;49.374;8.452;2023-05-10T00:08:46;16.34;99.99
13496;DHT22;6820;49.374;8.452;2023-05-10T00:12:48;16.34;99.99
13496;DHT22;6820;49.374;8.452;2023-05-10T00:16:50;16.33;99.99
13496;DHT22;6820;49.374;8.452;2023-05-10T00:20:51;16.30;99.99
13496;DHT22;6820;49.374;8.452;2023-05-10T00:24:53;16.26;99.99
13496;DHT22;6820;49.374;8.452;2023-05-10T00:28:54;16.22;99.99
13496;DHT22;6820;49.374;8.452;2023-05-10T00:32:56;16.26;99.99
13496;DHT22;6820;49.374;8.452;2023-05-10T00:36:58;16.26;99.99
13496;DHT22;6820;49.374;8.452;2023-05-10T00:41:00;16.18;99.99
13496;DHT22;6820;49.374;8.452;2023-05-10T00:45:05;16.16;99.99
13496;DHT22;6820;49.374;8.452;2023-05-10T00:49:07;16.17;99.99
13496;DHT22;6820;49.374;8.452;2023-05-10T00:53:09;16.13;99.99
13496;DHT22;6820;49.374;8.452;2023-05-10T00:57:11;16.11;99.99
13496;DHT22;6820;49.374;8.452;2023-05-10T01:01:13;16.10;99.99
13496;DHT22;6820;49.374;8.452;2023-05-10T01:05:15;16.10;99.99
13496;DHT22;6820;49.374;8.452;2023-05-10T01:09:16;16.01;99.99
13496;DHT22;6820;49.374;8.452;2023-05-10T01:13:30;16.03;99.99
13496;DHT22;6820;49.374;8.452;2023-05-10T01:17:39;16.03;99.99
13496;DHT22;6820;49.374;8.452;2023-05-10T01:21:53;16.01;99.99
13496;DHT22;6820;49.374;8.452;2023-05-10T01:35:10;15.96;99.99
13496;DHT22;6820;49.374;8.452;2023-05-10T01:39:17;15.98;99.99
13496;DHT22;6820;49.374;8.452;2023-05-10T01:43:26;15.92;99.99
13496;DHT22;6820;49.374;8.452;2023-05-10T01:47:38;15.93;99.99
13496;DHT22;6820;49.374;8.452;2023-05-10T01:51:47;15.91;99.99
13496;DHT22;6820;49.374;8.452;2023-05-10T01:55:53;15.88;99.99
13496;DHT22;6820;49.374;8.452;2023-05-10T01:59:56;15.85;99.99
13496;DHT22;6820;49.374;8.452;2023-05-10T02:04:00;15.85;99.99
13496;DHT22;6820;49.374;8.452;2023-05-10T02:08:05;15.84;99.99
13496;DHT22;6820;49.374;8.452;2023-05-10T02:12:07;15.84;99.99
13496;DHT22;6820;49.374;8.452;2023-05-10T02:16:10;15.74;99.99
13496;DHT22;6820;49.374;8.452;2023-05-10T02:20:13;15.71;99.99
13496;DHT22;6820;49.374;8.452;2023-05-10T02:24:18;15.76;99.99
13496;DHT22;6820;49.374;8.452;2023-05-10T02:28:21;15.77;99.99
13496;DHT22;6820;49.374;8.452;2023-05-10T02:32:23;15.74;99.99
13496;DHT22;6820;49.374;8.452;2023-05-10T02:36:27;15.74;99.99
13496;DHT22;6820;49.374;8.452;2023-05-10T02:40:31;15.74;99.99
13496;DHT22;6820;49.374;8.452;2023-05-10T02:44:34;15.77;99.99
13496;DHT22;6820;49.374;8.452;2023-05-10T02:48:38;15.74;99.99
13496;DHT22;6820;49.374;8.452;2023-05-10T02:52:44;15.71;99.99
13496;DHT22;6820;49.374;8.452;2023-05-10T02:57:00;15.70;99.99
13496;DHT22;6820;49.374;8.452;2023-05-10T03:01:06;15.66;99.99
13496;DHT22;6820;49.374;8.452;2023-05-10T03:05:09;15.64;99.99
13496;DHT22;6820;49.374;8.452;2023-05-10T03:09:10;15.64;99.99
13496;DHT22;6820;49.374;8.452;2023-05-10T03:13:21;15.60;99.99
13496;DHT22;6820;49.374;8.452;2023-05-10T03:21:50;15.53;99.99
13496;DHT22;6820;49.374;8.452;2023-05-10T03:25:53;15.41;99.99
13496;DHT22;6820;49.374;8.452;2023-05-10T03:29:55;15.35;99.99
13496;DHT22;6820;49.374;8.452;2023-05-10T03:33:59;15.30;99.99
13496;DHT22;6820;49.374;8.452;2023-05-10T03:38:01;15.28;99.99
13496;DHT22;6820;49.374;8.452;2023-05-10T03:42:03;15.27;99.99
13496;DHT22;6820;49.374;8.452;2023-05-10T03:46:05;15.25;99.99
13496;DHT22;6820;49.374;8.452;2023-05-10T03:50:07;15.25;99.99
13496;DHT22;6820;49.374;8.452;2023-05-10T03:54:09;15.19;99.99
13496;DHT22;6820;49.374;8.452;2023-05-10T03:58:11;15.16;99.99
13496;DHT22;6820;49.374;8.452;2023-05-10T04:02:13;15.13;99.99
13496;DHT22;6820;49.374;8.452;2023-05-10T04:06:15;15.11;99.99
13496;DHT22;6820;49.374;8.452;2023-05-10T04:10:16;15.07;99.99
13496;DHT22;6820;49.374;8.452;2023-05-10T04:14:19;15.04;99.99
13496;DHT22;6820;49.374;8.452;2023-05-10T04:18:20;15.03;99.99
13496;DHT22;6820;49.374;8.452;2023-05-10T04:22:22;15.00;99.99
13496;DHT22;6820;49.374;8.452;2023-05-10T04:26:24;15.00;99.99
13496;DHT22;6820;49.374;8.452;2023-05-10T04:30:26;15.01;99.99
13496;DHT22;6820;49.374;8.452;2023-05-10T04:34:30;14.97;99.99
13496;DHT22;6820;49.374;8.452;2023-05-10T04:38:32;14.97;99.99
13496;DHT22;6820;49.374;8.452;2023-05-10T04:42:33;14.95;99.99
13496;DHT22;6820;49.374;8.452;2023-05-10T04:46:35;14.97;99.99
13496;DHT22;6820;49.374;8.452;2023-05-10T04:50:37;14.97;99.99
13496;DHT22;6820;49.374;8.452;2023-05-10T04:54:38;14.95;99.99
13496;DHT22;6820;49.374;8.452;2023-05-10T04:58:40;14.95;99.99
13496;DHT22;6820;49.374;8.452;2023-05-10T05:02:42;14.95;99.99
13496;DHT22;6820;49.374;8.452;2023-05-10T05:06:45;15.00;99.99
13496;DHT22;6820;49.374;8.452;2023-05-10T05:10:47;15.04;99.99
13496;DHT22;6820;49.374;8.452;2023-05-10T05:14:51;15.09;99.99
13496;DHT22;6820;49.374;8.452;2023-05-10T05:18:53;15.15;99.99
13496;DHT22;6820;49.374;8.452;2023-05-10T05:22:54;15.15;99.99
13496;DHT22;6820;49.374;8.452;2023-05-10T05:26:56;15.18;99.99
13496;DHT22;6820;49.374;8.452;2023-05-10T05:30:57;15.23;99.99
13496;DHT22;6820;49.374;8.452;2023-05-10T05:34:59;15.31;99.99
13496;DHT22;6820;49.374;8.452;2023-05-10T05:39:01;15.41;99.99
13496;DHT22;6820;49.374;8.452;2023-05-10T05:43:03;15.49;99.99
13496;DHT22;6820;49.374;8.452;2023-05-10T05:47:04;15.58;99.99
13496;DHT22;6820;49.374;8.452;2023-05-10T05:51:06;15.67;99.99
13496;DHT22;6820;49.374;8.452;2023-05-10T05:55:08;15.73;99.99
13496;DHT22;6820;49.374;8.452;2023-05-10T05:59:10;15.78;99.99
13496;DHT22;6820;49.374;8.452;2023-05-10T06:03:12;15.85;99.99
13496;DHT22;6820;49.374;8.452;2023-05-10T06:07:13;15.89;99.99
13496;DHT22;6820;49.374;8.452;2023-05-10T06:11:15;15.93;99.99
13496;DHT22;6820;49.374;8.452;2023-05-10T06:15:17;15.91;99.99
13496;DHT22;6820;49.374;8.452;2023-05-10T06:19:19;15.96;99.99
13496;DHT22;6820;49.374;8.452;2023-05-10T06:23:20;16.06;99.99
13496;DHT22;6820;49.374;8.452;2023-05-10T06:27:23;16.13;99.99
13496;DHT22;6820;49.374;8.452;2023-05-10T06:31:25;16.16;99.99
13496;DHT22;6820;49.374;8.452;2023-05-10T06:35:27;16.17;99.99
13496;DHT22;6820;49.374;8.452;2023-05-10T06:39:29;16.17;99.99
13496;DHT22;6820;49.374;8.452;2023-05-10T06:43:31;16.08;99.99
13496;DHT22;6820;49.374;8.452;2023-05-10T06:47:33;16.04;99.99
13496;DHT22;6820;49.374;8.452;2023-05-10T06:51:39;16.03;99.99
13496;DHT22;6820;49.374;8.452;2023-05-10T06:55:41;16.06;99.99
13496;DHT22;6820;49.374;8.452;2023-05-10T06:59:42;16.22;99.99
13496;DHT22;6820;49.374;8.452;2023-05-10T07:03:44;16.36;99.99
13496;DHT22;6820;49.374;8.452;2023-05-10T07:07:46;16.45;99.99
13496;DHT22;6820;49.374;8.452;2023-05-10T07:11:48;16.52;99.99
13496;DHT22;6820;49.374;8.452;2023-05-10T07:15:49;16.62;99.99
13496;DHT22;6820;49.374;8.452;2023-05-10T07:19:51;16.75;99.99
13496;DHT22;6820;49.374;8.452;2023-05-10T07:23:53;16.90;99.99
13496;DHT22;6820;49.374;8.452;2023-05-10T07:27:55;17.03;99.99
13496;DHT22;6820;49.374;8.452;2023-05-10T07:31:56;17.15;99.99
13496;DHT22;6820;49.374;8.452;2023-05-10T07:35:59;17.25;99.99
13496;DHT22;6820;49.374;8.452;2023-05-10T07:40:01;17.36;99.99
13496;DHT22;6820;49.374;8.452;2023-05-10T07:44:03;17.43;99.99
13496;DHT22;6820;49.374;8.452;2023-05-10T07:48:05;17.47;99.99
13496;DHT22;6820;49.374;8.452;2023-05-10T07:52:06;17.55;99.99
13496;DHT22;6820;49.374;8.452;2023-05-10T07:56:24;17.71;99.99
13496;DHT22;6820;49.374;8.452;2023-05-10T08:00:31;17.80;99.99
13496;DHT22;6820;49.374;8.452;2023-05-10T08:04:32;17.95;99.99
13496;DHT22;6820;49.374;8.452;2023-05-10T08:08:34;18.02;99.99
13496;DHT22;6820;49.374;8.452;2023-05-10T08:12:35;18.17;99.99
13496;DHT22;6820;49.374;8.452;2023-05-10T08:16:37;18.25;99.99
13496;DHT22;6820;49.374;8.452;2023-05-10T08:20:39;18.20;99.99
13496;DHT22;6820;49.374;8.452;2023-05-10T08:24:41;18.13;99.99
13496;DHT22;6820;49.374;8.452;2023-05-10T08:28:43;18.16;99.99
13496;DHT22;6820;49.374;8.452;2023-05-10T08:32:45;18.07;99.99
13496;DHT22;6820;49.374;8.452;2023-05-10T08:36:48;18.10;99.99
13496;DHT22;6820;49.374;8.452;2023-05-10T08:40:50;18.01;99.99
13496;DHT22;6820;49.374;8.452;2023-05-10T08:44:57;17.80;99.99
13496;DHT22;6820;49.374;8.452;2023-05-10T08:49:01;17.62;99.99
13496;DHT22;6820;49.374;8.452;2023-05-10T08:53:12;17.58;99.99
13496;DHT22;6820;49.374;8.452;2023-05-10T08:57:14;17.55;99.99
13496;DHT22;6820;49.374;8.452;2023-05-10T09:01:16;17.54;99.99
13496;DHT22;6820;49.374;8.452;2023-05-10T09:05:19;17.68;99.99
13496;DHT22;6820;49.374;8.452;2023-05-10T09:09:21;17.66;99.99
13496;DHT22;6820;49.374;8.452;2023-05-10T09:13:24;18.01;99.99
13496;DHT22;6820;49.374;8.452;2023-05-10T09:17:27;18.26;99.99
13496;DHT22;6820;49.374;8.452;2023-05-10T09:21:30;18.39;99.99
13496;DHT22;6820;49.374;8.452;2023-05-10T09:25:32;18.34;99.99
13496;DHT22;6820;49.374;8.452;2023-05-10T09:29:38;18.28;99.99
13496;DHT22;6820;49.374;8.452;2023-05-10T09:33:45;18.31;99.99
13496;DHT22;6820;49.374;8.452;2023-05-10T09:37:48;18.41;99.99
13496;DHT22;6820;49.374;8.452;2023-05-10T09:41:51;18.60;99.99
13496;DHT22;6820;49.374;8.452;2023-05-10T09:45:54;18.53;99.99
13496;DHT22;6820;49.374;8.452;2023-05-10T09:49:58;18.25;99.99
13496;DHT22;6820;49.374;8.452;2023-05-10T09:54:14;17.92;99.99
13496;DHT22;6820;49.374;8.452;2023-05-10T09:58:17;17.77;99.99
13496;DHT22;6820;49.374;8.452;2023-05-10T10:02:19;17.51;99.99
13496;DHT22;6820;49.374;8.452;2023-05-10T10:06:20;17.33;99.99
13496;DHT22;6820;49.374;8.452;2023-05-10T10:10:30;17.22;99.99
13496;DHT22;6820;49.374;8.452;2023-05-10T10:14:33;16.99;99.99
13496;DHT22;6820;49.374;8.452;2023-05-10T10:18:35;16.80;99.99
13496;DHT22;6820;49.374;8.452;2023-05-10T10:22:41;16.82;99.99
13496;DHT22;6820;49.374;8.452;2023-05-10T10:26:43;17.07;99.99
13496;DHT22;6820;49.374;8.452;2023-05-10T10:30:47;17.38;99.99
13496;DHT22;6820;49.374;8.452;2023-05-10T10:34:51;17.87;99.99
13496;DHT22;6820;49.374;8.452;2023-05-10T10:39:00;18.32;99.99
13496;DHT22;6820;49.374;8.452;2023-05-10T10:43:21;18.72;99.99
13496;DHT22;6820;49.374;8.452;2023-05-10T10:47:28;18.87;99.99
13496;DHT22;6820;49.374;8.452;2023-05-10T10:51:37;18.96;99.99
13496;DHT22;6820;49.374;8.452;2023-05-10T10:55:48;19.01;99.99
13496;DHT22;6820;49.374;8.452;2023-05-10T10:59:50;18.99;99.99
13496;DHT22;6820;49.374;8.452;2023-05-10T11:08:00;18.89;99.99
13496;DHT22;6820;49.374;8.452;2023-05-10T11:12:08;18.74;99.99
13496;DHT22;6820;49.374;8.452;2023-05-10T11:20:21;18.66;99.99
13496;DHT22;6820;49.374;8.452;2023-05-10T11:24:26;18.75;99.99
13496;DHT22;6820;49.374;8.452;2023-05-10T11:28:29;18.86;99.99
13496;DHT22;6820;49.374;8.452;2023-05-10T11:32:30;19.07;99.99
13496;DHT22;6820;49.374;8.452;2023-05-10T11:36:33;19.21;99.99
13496;DHT22;6820;49.374;8.452;2023-05-10T11:40:37;19.32;99.99
13496;DHT22;6820;49.374;8.452;2023-05-10T11:44:39;19.50;99.99
13496;DHT22;6820;49.374;8.452;2023-05-10T11:48:42;19.49;99.99
13496;DHT22;6820;49.374;8.452;2023-05-10T11:52:44;19.52;99.99
13496;DHT22;6820;49.374;8.452;2023-05-10T11:56:45;19.34;99.99
13496;DHT22;6820;49.374;8.452;2023-05-10T12:00:47;19.42;99.99
13496;DHT22;6820;49.374;8.452;2023-05-10T12:04:49;19.52;99.99
13496;DHT22;6820;49.374;8.452;2023-05-10T12:08:52;19.58;99.99
13496;DHT22;6820;49.374;8.452;2023-05-10T12:12:55;19.80;99.99
13496;DHT22;6820;49.374;8.452;2023-05-10T12:16:57;19.89;99.99
13496;DHT22;6820;49.374;8.452;2023-05-10T12:21:02;19.83;99.99
13496;DHT22;6820;49.374;8.452;2023-05-10T12:25:04;19.78;99.99
13496;DHT22;6820;49.374;8.452;2023-05-10T12:33:15;19.97;99.99
13496;DHT22;6820;49.374;8.452;2023-05-10T12:37:23;20.41;99.99
13496;DHT22;6820;49.374;8.452;2023-05-10T12:41:25;20.26;99.99
13496;DHT22;6820;49.374;8.452;2023-05-10T12:45:27;20.66;99.99
13496;DHT22;6820;49.374;8.452;2023-05-10T12:49:28;20.76;99.99
13496;DHT22;6820;49.374;8.452;2023-05-10T12:53:30;20.69;99.99
13496;DHT22;6820;49.374;8.452;2023-05-10T12:57:32;20.60;99.99
13496;DHT22;6820;49.374;8.452;2023-05-10T13:01:34;20.75;99.99
13496;DHT22;6820;49.374;8.452;2023-05-10T13:05:36;21.09;99.99
13496;DHT22;6820;49.374;8.452;2023-05-10T13:09:37;21.15;99.99
13496;DHT22;6820;49.374;8.452;2023-05-10T13:13:39;20.97;99.99
13496;DHT22;6820;49.374;8.452;2023-05-10T13:17:41;20.60;99.99
13496;DHT22;6820;49.374;8.452;2023-05-10T13:21:43;20.61;99.99
13496;DHT22;6820;49.374;8.452;2023-05-10T13:25:45;20.64;99.99
13496;DHT22;6820;49.374;8.452;2023-05-10T13:29:47;20.61;99.99
13496;DHT22;6820;49.374;8.452;2023-05-10T13:33:49;20.72;99.99
13496;DHT22;6820;49.374;8.452;2023-05-10T13:37:51;20.78;99.99
13496;DHT22;6820;49.374;8.452;2023-05-10T13:41:54;20.83;99.99
13496;DHT22;6820;49.374;8.452;2023-05-10T13:45:56;20.93;99.99
13496;DHT22;6820;49.374;8.452;2023-05-10T13:49:58;21.12;99.99
13496;DHT22;6820;49.374;8.452;2023-05-10T13:53:59;21.22;99.99
13496;DHT22;6820;49.374;8.452;2023-05-10T13:58:01;21.15;99.99
13496;DHT22;6820;49.374;8.452;2023-05-10T14:02:03;21.15;99.99
13496;DHT22;6820;49.374;8.452;2023-05-10T14:06:05;21.12;99.99
13496;DHT22;6820;49.374;8.452;2023-05-10T14:10:08;21.26;99.99
13496;DHT22;6820;49.374;8.452;2023-05-10T14:14:10;21.00;99.99
13496;DHT22;6820;49.374;8.452;2023-05-10T14:18:12;20.90;99.99
13496;DHT22;6820;49.374;8.452;2023-05-10T14:22:14;20.91;99.99
13496;DHT22;6820;49.374;8.452;2023-05-10T14:26:15;20.98;99.99
13496;DHT22;6820;49.374;8.452;2023-05-10T14:30:17;21.28;99.99
13496;DHT22;6820;49.374;8.452;2023-05-10T14:34:19;21.45;99.99
13496;DHT22;6820;49.374;8.452;2023-05-10T14:38:21;21.59;99.99
13496;DHT22;6820;49.374;8.452;2023-05-10T14:42:22;21.61;99.99
13496;DHT22;6820;49.374;8.452;2023-05-10T14:46:24;21.49;99.99
13496;DHT22;6820;49.374;8.452;2023-05-10T14:50:26;21.42;99.99
13496;DHT22;6820;49.374;8.452;2023-05-10T14:54:37;21.31;99.99
13496;DHT22;6820;49.374;8.452;2023-05-10T14:58:39;21.37;99.99
13496;DHT22;6820;49.374;8.452;2023-05-10T15:02:41;21.86;99.99
13496;DHT22;6820;49.374;8.452;2023-05-10T15:06:43;21.90;99.99
13496;DHT22;6820;49.374;8.452;2023-05-10T15:10:45;21.98;99.99
13496;DHT22;6820;49.374;8.452;2023-05-10T15:14:47;21.99;99.99
13496;DHT22;6820;49.374;8.452;2023-05-10T15:18:49;21.49;99.99
13496;DHT22;6820;49.374;8.452;2023-05-10T15:22:51;21.34;99.99
13496;DHT22;6820;49.374;8.452;2023-05-10T15:26:52;21.46;99.99
13496;DHT22;6820;49.374;8.452;2023-05-10T15:30:55;21.31;99.99
13496;DHT22;6820;49.374;8.452;2023-05-10T15:34:57;21.75;99.99
13496;DHT22;6820;49.374;8.452;2023-05-10T15:38:59;21.99;99.99
13496;DHT22;6820;49.374;8.452;2023-05-10T15:43:01;21.79;99.99
13496;DHT22;6820;49.374;8.452;2023-05-10T15:47:02;21.66;99.99
13496;DHT22;6820;49.374;8.452;2023-05-10T15:51:04;21.51;99.99
13496;DHT22;6820;49.374;8.452;2023-05-10T15:55:06;21.37;99.99
13496;DHT22;6820;49.374;8.452;2023-05-10T15:59:13;21.28;99.99
13496;DHT22;6820;49.374;8.452;2023-05-10T16:03:15;21.33;99.99
13496;DHT22;6820;49.374;8.452;2023-05-10T16:07:16;21.19;99.99
13496;DHT22;6820;49.374;8.452;2023-05-10T16:11:20;21.24;99.99
13496;DHT22;6820;49.374;8.452;2023-05-10T16:15:22;21.05;99.99
13496;DHT22;6820;49.374;8.452;2023-05-10T16:19:24;21.22;99.99
13496;DHT22;6820;49.374;8.452;2023-05-10T16:23:30;21.24;99.99
13496;DHT22;6820;49.374;8.452;2023-05-10T16:27:32;21.08;99.99
13496;DHT22;6820;49.374;8.452;2023-05-10T16:31:33;20.93;99.99
13496;DHT22;6820;49.374;8.452;2023-05-10T16:35:35;20.96;99.99
13496;DHT22;6820;49.374;8.452;2023-05-10T16:39:37;21.30;99.99
13496;DHT22;6820;49.374;8.452;2023-05-10T16:43:39;21.11;99.99
13496;DHT22;6820;49.374;8.452;2023-05-10T16:47:40;21.05;99.99
13496;DHT22;6820;49.374;8.452;2023-05-10T16:51:43;21.03;99.99
13496;DHT22;6820;49.374;8.452;2023-05-10T16:55:44;20.91;99.99
13496;DHT22;6820;49.374;8.452;2023-05-10T16:59:46;20.79;99.99
13496;DHT22;6820;49.374;8.452;2023-05-10T17:03:48;20.72;99.99
13496;DHT22;6820;49.374;8.452;2023-05-10T17:07:50;20.69;99.99
13496;DHT22;6820;49.374;8.452;2023-05-10T17:11:51;20.63;99.99
13496;DHT22;6820;49.374;8.452;2023-05-10T17:15:53;20.48;99.99
13496;DHT22;6820;49.374;8.452;2023-05-10T17:19:55;20.33;99.99
13496;DHT22;6820;49.374;8.452;2023-05-10T17:23:56;20.23;99.99
13496;DHT22;6820;49.374;8.452;2023-05-10T17:27:58;20.10;99.99
13496;DHT22;6820;49.374;8.452;2023-05-10T17:32:00;20.05;99.99
13496;DHT22;6820;49.374;8.452;2023-05-10T17:36:02;19.94;99.99
13496;DHT22;6820;49.374;8.452;2023-05-10T17:40:04;19.87;99.99
13496;DHT22;6820;49.374;8.452;2023-05-10T17:44:08;19.67;99.99
13496;DHT22;6820;49.374;8.452;2023-05-10T17:48:09;19.49;99.99
13496;DHT22;6820;49.374;8.452;2023-05-10T17:52:11;19.43;99.99
13496;DHT22;6820;49.374;8.452;2023-05-10T17:56:13;19.34;99.99
13496;DHT22;6820;49.374;8.452;2023-05-10T18:00:15;19.32;99.99
13496;DHT22;6820;49.374;8.452;2023-05-10T18:04:16;19.31;99.99
13496;DHT22;6820;49.374;8.452;2023-05-10T18:08:18;19.24;99.99
13496;DHT22;6820;49.374;8.452;2023-05-10T18:12:23;19.05;99.99
13496;DHT22;6820;49.374;8.452;2023-05-10T18:16:24;18.97;99.99
13496;DHT22;6820;49.374;8.452;2023-05-10T18:20:26;18.90;99.99
13496;DHT22;6820;49.374;8.452;2023-05-10T18:24:28;18.83;99.99
13496;DHT22;6820;49.374;8.452;2023-05-10T18:28:40;18.82;99.99
13496;DHT22;6820;49.374;8.452;2023-05-10T18:32:42;18.74;99.99
13496;DHT22;6820;49.374;8.452;2023-05-10T18:36:44;18.66;99.99
13496;DHT22;6820;49.374;8.452;2023-05-10T18:40:46;18.53;99.99
13496;DHT22;6820;49.374;8.452;2023-05-10T18:44:47;18.44;99.99
13496;DHT22;6820;49.374;8.452;2023-05-10T18:48:49;18.36;99.99
13496;DHT22;6820;49.374;8.452;2023-05-10T18:52:52;18.21;99.99
13496;DHT22;6820;49.374;8.452;2023-05-10T18:56:54;18.13;99.99
13496;DHT22;6820;49.374;8.452;2023-05-10T19:00:57;18.07;99.99
13496;DHT22;6820;49.374;8.452;2023-05-10T19:04:59;18.02;99.99
13496;DHT22;6820;49.374;8.452;2023-05-10T19:09:01;17.95;99.99
13496;DHT22;6820;49.374;8.452;2023-05-10T19:13:03;17.91;99.99
13496;DHT22;6820;49.374;8.452;2023-05-10T19:17:04;17.83;99.99
13496;DHT22;6820;49.374;8.452;2023-05-10T19:21:08;17.79;99.99
13496;DHT22;6820;49.374;8.452;2023-05-10T19:25:10;17.79;99.99
13496;DHT22;6820;49.374;8.452;2023-05-10T19:29:13;17.79;99.99
13496;DHT22;6820;49.374;8.452;2023-05-10T19:33:17;17.76;99.99
13496;DHT22;6820;49.374;8.452;2023-05-10T19:37:19;17.73;99.99
13496;DHT22;6820;49.374;8.452;2023-05-10T19:41:21;17.74;99.99
13496;DHT22;6820;49.374;8.452;2023-05-10T19:45:23;17.65;99.99
13496;DHT22;6820;49.374;8.452;2023-05-10T19:49:24;17.65;99.99
13496;DHT22;6820;49.374;8.452;2023-05-10T19:53:26;17.51;99.99
13496;DHT22;6820;49.374;8.452;2023-05-10T19:57:28;17.46;99.99
13496;DHT22;6820;49.374;8.452;2023-05-10T20:01:30;17.40;99.99
13496;DHT22;6820;49.374;8.452;2023-05-10T20:05:33;17.33;99.99
13496;DHT22;6820;49.374;8.452;2023-05-10T20:09:35;17.27;99.99
13496;DHT22;6820;49.374;8.452;2023-05-10T20:13:37;17.15;99.99
13496;DHT22;6820;49.374;8.452;2023-05-10T20:17:39;17.14;99.99
13496;DHT22;6820;49.374;8.452;2023-05-10T20:21:40;17.15;99.99
13496;DHT22;6820;49.374;8.452;2023-05-10T20:25:43;17.07;99.99
13496;DHT22;6820;49.374;8.452;2023-05-10T20:29:44;17.07;99.99
13496;DHT22;6820;49.374;8.452;2023-05-10T20:33:46;17.02;99.99
13496;DHT22;6820;49.374;8.452;2023-05-10T20:37:48;17.00;99.99
13496;DHT22;6820;49.374;8.452;2023-05-10T20:41:49;16.99;99.99
13496;DHT22;6820;49.374;8.452;2023-05-10T20:45:51;16.88;99.99
13496;DHT22;6820;49.374;8.452;2023-05-10T20:49:54;16.80;99.99
13496;DHT22;6820;49.374;8.452;2023-05-10T20:53:56;16.67;99.99
13496;DHT22;6820;49.374;8.452;2023-05-10T20:57:58;16.66;99.99
13496;DHT22;6820;49.374;8.452;2023-05-10T21:01:59;16.57;99.99
13496;DHT22;6820;49.374;8.452;2023-05-10T21:06:01;16.48;99.99
13496;DHT22;6820;49.374;8.452;2023-05-10T21:10:03;16.37;99.99
13496;DHT22;6820;49.374;8.452;2023-05-10T21:14:05;16.42;99.99
13496;DHT22;6820;49.374;8.452;2023-05-10T21:18:08;16.44;99.99
13496;DHT22;6820;49.374;8.452;2023-05-10T21:22:09;16.45;99.99
13496;DHT22;6820;49.374;8.452;2023-05-10T21:26:11;16.47;99.99
13496;DHT22;6820;49.374;8.452;2023-05-10T21:30:13;16.40;99.99
13496;DHT22;6820;49.374;8.452;2023-05-10T21:34:14;16.36;99.99
13496;DHT22;6820;49.374;8.452;2023-05-10T21:38:18;16.34;99.99
13496;DHT22;6820;49.374;8.452;2023-05-10T21:42:19;16.33;99.99
13496;DHT22;6820;49.374;8.452;2023-05-10T21:46:21;16.30;99.99
13496;DHT22;6820;49.374;8.452;2023-05-10T21:50:23;16.23;99.99
13496;DHT22;6820;49.374;8.452;2023-05-10T21:54:24;16.22;99.99
13496;DHT22;6820;49.374;8.452;2023-05-10T21:58:26;16.22;99.99
13496;DHT22;6820;49.374;8.452;2023-05-10T22:02:28;16.13;99.99
13496;DHT22;6820;49.374;8.452;2023-05-10T22:06:30;16.08;99.99
13496;DHT22;6820;49.374;8.452;2023-05-10T22:10:32;16.10;99.99
13496;DHT22;6820;49.374;8.452;2023-05-10T22:14:34;16.06;99.99
13496;DHT22;6820;49.374;8.452;2023-05-10T22:18:36;16.01;99.99
13496;DHT22;6820;49.374;8.452;2023-05-10T22:22:37;15.96;99.99
13496;DHT22;6820;49.374;8.452;2023-05-10T22:26:39;15.92;99.99
13496;DHT22;6820;49.374;8.452;2023-05-10T22:30:41;15.89;99.99
13496;DHT22;6820;49.374;8.452;2023-05-10T22:34:43;15.86;99.99
13496;DHT22;6820;49.374;8.452;2023-05-10T22:38:45;15.80;99.99
13496;DHT22;6820;49.374;8.452;2023-05-10T22:42:46;15.71;99.99
13496;DHT22;6820;49.374;8.452;2023-05-10T22:46:48;15.67;99.99
13496;DHT22;6820;49.374;8.452;2023-05-10T22:50:50;15.66;99.99
13496;DHT22;6820;49.374;8.452;2023-05-10T22:54:51;15.58;99.99
13496;DHT22;6820;49.374;8.452;2023-05-10T22:58:53;15.55;99.99
13496;DHT22;6820;49.374;8.452;2023-05-10T23:02:55;15.53;99.99
13496;DHT22;6820;49.374;8.452;2023-05-10T23:06:56;15.51;99.99
13496;DHT22;6820;49.374;8.452;2023-05-10T23:10:58;15.48;99.99
13496;DHT22;6820;49.374;8.452;2023-05-10T23:14:59;15.49;99.99
13496;DHT22;6820;49.374;8.452;2023-05-10T23:19:01;15.44;99.99
13496;DHT22;6820;49.374;8.452;2023-05-10T23:23:03;15.46;99.99
13496;DHT22;6820;49.374;8.452;2023-05-10T23:27:05;15.46;99.99
13496;DHT22;6820;49.374;8.452;2023-05-10T23:31:06;15.40;99.99
13496;DHT22;6820;49.374;8.452;2023-05-10T23:35:08;15.46;99.99
13496;DHT22;6820;49.374;8.452;2023-05-10T23:39:09;15.41;99.99
13496;DHT22;6820;49.374;8.452;2023-05-10T23:43:12;15.37;99.99
13496;DHT22;6820;49.374;8.452;2023-05-10T23:47:16;15.34;99.99
13496;DHT22;6820;49.374;8.452;2023-05-10T23:51:18;15.22;99.99
13496;DHT22;6820;49.374;8.452;2023-05-10T23:55:19;15.25;99.99
13496;DHT22;6820;49.374;8.452;2023-05-10T23:59:21;15.22;99.99
